Time;durP1;ratioP1;P1;durP2;ratioP2;P2;SDS_P1;SDS_P2;PMS_P1;PMS_P2;Temp;Humidity;BMP_temperature;BMP_pressure;BME280_temperature;BME280_humidity;BME280_pressure;Samples;Min_cycle;Max_cycle;Signal;HPM_P1;HPM_P2
2023/08/21 00:01:22;;;;;;;39.83;33.85;;;21.30;99.90;;;;;;4995197;28;32896;-65
2023/08/21 00:03:49;;;;;;;40.25;32.45;;;21.30;99.90;;;;;;5024531;28;31134;-65
2023/08/21 00:06:15;;;;;;;37.53;32.97;;;21.20;99.90;;;;;;5028805;28;24982;-66
2023/08/21 00:08:41;;;;;;;35.30;31.50;;;21.20;99.90;;;;;;4989097;28;32079;-65
2023/08/21 00:11:07;;;;;;;38.15;30.15;;;21.20;99.90;;;;;;4973029;28;49450;-65
2023/08/21 00:13:53;;;;;;;38.25;31.55;;;21.10;99.90;;;;;;4997221;28;48916;-66
2023/08/21 00:16:20;;;;;;;34.53;30.70;;;21.10;99.90;;;;;;4959351;28;24965;-65
2023/08/21 00:18:46;;;;;;;36.75;31.50;;;21.10;99.90;;;;;;5009754;28;49211;-66
2023/08/21 00:21:12;;;;;;;39.60;29.95;;;21.10;99.90;;;;;;5012951;28;34223;-65
2023/08/21 00:24:00;;;;;;;35.47;30.50;;;21.00;99.90;;;;;;4965960;28;35310;-65
2023/08/21 00:29:12;;;;;;;35.22;31.13;;;21.00;99.90;;;;;;5154746;27;20142;-66
2023/08/21 00:31:38;;;;;;;33.22;29.27;;;20.90;99.90;;;;;;5127254;27;20043;-66
2023/08/21 00:34:04;;;;;;;35.33;28.73;;;21.00;99.90;;;;;;5122237;27;20042;-65
2023/08/21 00:36:30;;;;;;;36.42;29.48;;;21.00;99.90;;;;;;5111589;28;20063;-65
2023/08/21 00:38:56;;;;;;;36.45;29.85;;;20.80;99.90;;;;;;5122019;27;20039;-66
2023/08/21 00:41:22;;;;;;;37.72;28.58;;;20.80;99.90;;;;;;5096939;28;21290;-66
2023/08/21 00:43:48;;;;;;;35.60;28.98;;;20.80;99.90;;;;;;5103710;27;20055;-66
2023/08/21 00:46:15;;;;;;;39.13;29.50;;;20.80;99.90;;;;;;5041439;27;1451703;-65
2023/08/21 00:48:42;;;;;;;38.10;30.00;;;20.70;99.90;;;;;;5109107;28;20054;-66
2023/08/21 00:51:09;;;;;;;33.67;30.08;;;20.70;99.90;;;;;;5065439;28;20044;-66
2023/08/21 00:53:35;;;;;;;35.10;29.75;;;20.70;99.90;;;;;;5095032;28;20044;-65
2023/08/21 00:56:02;;;;;;;35.35;30.23;;;20.70;99.90;;;;;;5104574;28;20036;-66
2023/08/21 00:58:28;;;;;;;34.92;30.65;;;20.60;99.90;;;;;;5089054;28;20047;-66
2023/08/21 01:00:54;;;;;;;39.15;30.23;;;20.70;99.90;;;;;;5100469;28;20054;-65
2023/08/21 01:03:20;;;;;;;34.35;30.10;;;20.60;99.90;;;;;;5064010;28;20513;-65
2023/08/21 01:05:47;;;;;;;35.75;30.52;;;20.60;99.90;;;;;;5099186;28;20054;-65
2023/08/21 01:08:23;;;;;;;37.92;30.75;;;20.60;99.90;;;;;;5056465;28;20390;-65
2023/08/21 01:11:12;;;;;;;38.83;29.95;;;20.60;99.90;;;;;;5090238;28;20048;-65
2023/08/21 01:13:54;;;;;;;39.17;28.77;;;20.60;99.90;;;;;;5070673;28;20080;-65
2023/08/21 01:16:22;;;;;;;36.67;28.98;;;20.60;99.90;;;;;;5093983;28;20043;-66
2023/08/21 01:18:49;;;;;;;32.75;27.00;;;20.50;99.90;;;;;;5098333;28;20458;-65
2023/08/21 01:21:15;;;;;;;38.38;28.90;;;20.40;99.90;;;;;;5088248;28;20044;-66
2023/08/21 01:23:42;;;;;;;35.28;28.98;;;20.50;99.90;;;;;;5098080;28;20051;-65
2023/08/21 01:26:08;;;;;;;36.65;29.05;;;20.40;99.90;;;;;;5097743;28;20542;-65
2023/08/21 01:28:35;;;;;;;36.05;29.83;;;20.40;99.90;;;;;;5098199;28;20091;-66
2023/08/21 01:31:11;;;;;;;38.45;29.75;;;20.40;99.90;;;;;;5076297;28;20138;-65
2023/08/21 01:34:01;;;;;;;33.83;28.77;;;20.40;99.90;;;;;;5093878;28;20071;-65
2023/08/21 01:36:28;;;;;;;36.72;29.10;;;20.30;99.90;;;;;;5089551;28;20067;-65
2023/08/21 01:38:54;;;;;;;33.78;29.42;;;20.30;99.90;;;;;;5074807;28;20064;-65
2023/08/21 01:41:24;;;;;;;33.90;29.35;;;20.30;99.90;;;;;;5047076;28;20041;-65
2023/08/21 01:43:50;;;;;;;38.88;30.60;;;20.30;99.90;;;;;;5050120;28;20052;-65
2023/08/21 01:46:17;;;;;;;33.25;28.30;;;20.30;99.90;;;;;;5064036;28;20041;-65
2023/08/21 01:48:43;;;;;;;36.67;28.25;;;20.20;99.90;;;;;;5056677;28;20052;-65
2023/08/21 01:51:09;;;;;;;33.35;28.60;;;20.20;99.90;;;;;;5046048;28;20036;-66
2023/08/21 01:53:35;;;;;;;33.22;28.55;;;20.20;99.90;;;;;;5068474;28;20101;-65
2023/08/21 01:56:01;;;;;;;35.08;30.00;;;20.20;99.90;;;;;;5024455;28;20391;-65
2023/08/21 01:58:27;;;;;;;34.70;28.05;;;20.20;99.90;;;;;;5027318;28;20064;-65
2023/08/21 02:00:53;;;;;;;35.20;30.20;;;20.20;99.90;;;;;;5027029;28;20050;-65
2023/08/21 02:03:19;;;;;;;31.48;26.63;;;20.20;99.90;;;;;;4992860;28;20060;-65
2023/08/21 02:05:45;;;;;;;32.38;28.17;;;20.20;99.90;;;;;;5028962;28;20041;-65
2023/08/21 02:08:13;;;;;;;36.15;29.58;;;20.30;99.90;;;;;;5069294;28;20055;-65
2023/08/21 02:10:59;;;;;;;33.67;26.67;;;20.30;99.90;;;;;;5039785;28;20639;-65
2023/08/21 02:13:26;;;;;;;33.50;27.10;;;20.30;99.90;;;;;;5018735;28;20029;-65
2023/08/21 02:15:52;;;;;;;41.97;27.70;;;20.30;99.90;;;;;;5032394;28;20056;-65
2023/08/21 02:18:18;;;;;;;35.85;27.55;;;20.30;99.90;;;;;;5030964;28;20563;-65
2023/08/21 02:20:44;;;;;;;32.55;28.23;;;20.20;99.90;;;;;;5017708;28;20049;-65
2023/08/21 02:23:10;;;;;;;33.03;27.67;;;20.30;99.90;;;;;;5024418;28;20034;-65
2023/08/21 02:25:36;;;;;;;33.78;27.75;;;20.30;99.90;;;;;;5015355;28;20115;-65
2023/08/21 02:28:03;;;;;;;32.15;27.13;;;20.30;99.90;;;;;;5020497;28;20066;-65
2023/08/21 02:30:29;;;;;;;29.80;26.60;;;20.30;99.90;;;;;;5000873;28;20087;-65
2023/08/21 02:32:56;;;;;;;31.58;26.98;;;20.30;99.90;;;;;;5004799;28;20044;-65
2023/08/21 02:35:23;;;;;;;32.90;27.40;;;20.30;99.90;;;;;;5013336;28;20064;-65
2023/08/21 02:37:49;;;;;;;32.90;26.77;;;20.30;99.90;;;;;;5006512;28;20559;-65
2023/08/21 02:40:16;;;;;;;34.88;27.13;;;20.30;99.90;;;;;;5034294;28;22167;-65
2023/08/21 02:42:42;;;;;;;31.08;27.50;;;20.30;99.90;;;;;;5061658;28;23374;-65
2023/08/21 02:45:08;;;;;;;33.38;26.73;;;20.30;99.90;;;;;;5025430;28;24266;-65
2023/08/21 02:47:38;;;;;;;30.17;26.42;;;20.30;99.90;;;;;;5020438;28;27925;-65
2023/08/21 02:50:06;;;;;;;37.70;27.05;;;20.30;99.90;;;;;;5052413;28;29173;-65
2023/08/21 02:52:33;;;;;;;29.30;25.98;;;20.30;99.90;;;;;;5040402;28;30448;-65
2023/08/21 02:54:59;;;;;;;33.00;26.73;;;20.30;99.90;;;;;;5057920;28;32307;-65
2023/08/21 02:57:26;;;;;;;29.80;26.15;;;20.30;99.90;;;;;;5058676;28;33229;-65
2023/08/21 02:59:53;;;;;;;29.73;25.60;;;20.30;99.90;;;;;;5068350;28;33225;-65
2023/08/21 03:02:20;;;;;;;29.77;25.63;;;20.30;99.90;;;;;;5056370;28;34747;-66
2023/08/21 03:04:46;;;;;;;27.08;24.20;;;20.30;99.90;;;;;;5068494;28;36549;-65
2023/08/21 03:07:13;;;;;;;30.63;26.27;;;20.30;99.90;;;;;;5005306;28;37250;-65
2023/08/21 03:09:39;;;;;;;30.50;24.98;;;20.30;99.90;;;;;;5027637;28;38571;-66
2023/08/21 03:12:06;;;;;;;32.28;25.42;;;20.20;99.90;;;;;;5061815;28;38326;-66
2023/08/21 03:14:33;;;;;;;30.48;24.20;;;20.20;99.90;;;;;;5025471;28;40323;-64
2023/08/21 03:16:59;;;;;;;31.70;24.70;;;20.20;99.90;;;;;;5005325;28;40600;-65
2023/08/21 03:19:26;;;;;;;28.02;24.98;;;20.20;99.90;;;;;;4996419;28;41788;-65
2023/08/21 03:21:52;;;;;;;28.50;24.30;;;20.20;99.90;;;;;;5026589;28;43040;-65
2023/08/21 03:24:19;;;;;;;27.52;24.48;;;20.20;99.90;;;;;;5011550;28;44104;-64
2023/08/21 03:26:45;;;;;;;29.10;24.77;;;20.10;99.90;;;;;;5000887;28;44528;-65
2023/08/21 03:29:11;;;;;;;29.15;24.73;;;20.00;99.90;;;;;;5013916;28;46189;-65
2023/08/21 03:31:38;;;;;;;27.27;24.42;;;20.00;99.90;;;;;;5019391;28;46871;-65
2023/08/21 03:34:04;;;;;;;28.55;23.17;;;19.90;99.90;;;;;;5002945;28;25006;-65
2023/08/21 03:36:31;;;;;;;29.38;24.48;;;19.90;99.90;;;;;;4982740;28;49145;-65
2023/08/21 03:39:01;;;;;;;31.25;25.10;;;19.90;99.90;;;;;;5022014;28;49048;-65
2023/08/21 03:41:28;;;;;;;28.70;23.92;;;19.90;99.90;;;;;;4997835;28;31705;-65
2023/08/21 03:43:54;;;;;;;28.13;24.55;;;19.90;99.90;;;;;;5055592;28;49240;-65
2023/08/21 03:46:21;;;;;;;31.80;24.05;;;19.80;99.90;;;;;;5052626;28;49099;-65
2023/08/21 03:48:47;;;;;;;27.23;23.83;;;19.80;99.90;;;;;;5016892;28;49174;-65
2023/08/21 03:51:13;;;;;;;27.83;24.75;;;19.80;99.90;;;;;;4999286;28;49765;-65
2023/08/21 03:53:39;;;;;;;33.03;25.05;;;19.80;99.90;;;;;;5038961;28;49079;-65
2023/08/21 03:56:05;;;;;;;28.90;25.30;;;19.80;99.90;;;;;;5015382;28;49468;-65
2023/08/21 03:58:32;;;;;;;30.58;25.08;;;19.80;99.90;;;;;;5015860;28;49717;-66
2023/08/21 04:00:58;;;;;;;26.90;24.05;;;19.80;99.90;;;;;;4996946;28;64995;-65
2023/08/21 04:03:25;;;;;;;29.40;24.30;;;19.80;99.90;;;;;;5022226;28;66862;-65
2023/08/21 04:05:54;;;;;;;26.85;23.85;;;19.70;99.90;;;;;;5018283;28;69336;-65
2023/08/21 04:08:20;;;;;;;29.45;24.38;;;19.70;99.90;;;;;;5005295;28;71002;-65
2023/08/21 04:10:46;;;;;;;29.35;24.17;;;19.70;99.90;;;;;;5049531;28;69945;-65
2023/08/21 04:13:12;;;;;;;34.28;24.88;;;19.70;99.90;;;;;;5028652;28;49753;-65
2023/08/21 04:15:40;;;;;;;30.67;24.52;;;19.70;99.90;;;;;;5025864;28;25414;-65
2023/08/21 04:18:06;;;;;;;28.50;23.73;;;19.70;99.90;;;;;;5047659;28;48494;-65
2023/08/21 04:20:32;;;;;;;28.48;24.85;;;19.70;99.90;;;;;;5045574;28;48734;-65
2023/08/21 04:22:58;;;;;;;33.03;28.27;;;19.70;99.90;;;;;;5038851;28;24679;-65
2023/08/21 04:25:25;;;;;;;33.75;28.45;;;19.70;99.90;;;;;;5015827;28;49292;-65
2023/08/21 04:27:51;;;;;;;31.65;26.13;;;19.70;99.90;;;;;;5045507;28;49497;-65
2023/08/21 04:30:17;;;;;;;34.80;28.20;;;19.70;99.90;;;;;;5028626;28;49362;-65
2023/08/21 04:32:43;;;;;;;29.10;25.92;;;19.80;99.90;;;;;;5004369;28;49292;-65
2023/08/21 04:35:09;;;;;;;34.05;30.23;;;19.80;99.90;;;;;;4962226;28;48620;-65
2023/08/21 04:37:37;;;;;;;32.63;27.65;;;19.80;99.90;;;;;;4944443;28;49547;-65
2023/08/21 04:40:06;;;;;;;28.88;25.75;;;19.80;99.90;;;;;;4994744;28;49171;-65
2023/08/21 04:42:32;;;;;;;33.88;26.67;;;19.90;99.90;;;;;;4986923;28;48978;-64
2023/08/21 04:44:59;;;;;;;36.92;26.13;;;19.90;99.90;;;;;;4977375;28;49536;-64
2023/08/21 04:47:27;;;;;;;32.28;25.25;;;19.90;99.90;;;;;;4986725;28;74028;-65
2023/08/21 04:49:56;;;;;;;29.42;25.42;;;19.90;99.90;;;;;;4963678;28;34917;-65
2023/08/21 04:52:24;;;;;;;31.17;24.52;;;19.90;99.90;;;;;;4942090;28;49546;-65
2023/08/21 04:54:51;;;;;;;27.02;23.70;;;20.00;99.90;;;;;;4954337;28;49406;-65
2023/08/21 04:57:17;;;;;;;27.17;24.23;;;20.00;99.90;;;;;;4962037;28;48664;-65
2023/08/21 04:59:44;;;;;;;30.48;23.60;;;20.10;99.90;;;;;;4994508;28;25011;-63
2023/08/21 05:02:10;;;;;;;27.30;24.48;;;20.10;99.90;;;;;;4977712;28;50010;-65
2023/08/21 05:04:38;;;;;;;29.70;26.15;;;20.00;99.90;;;;;;4969915;28;48782;-65
2023/08/21 05:07:05;;;;;;;37.92;28.55;;;20.20;99.90;;;;;;4978177;28;49363;-65
2023/08/21 05:09:31;;;;;;;36.78;27.88;;;20.20;99.90;;;;;;4975581;28;49395;-64
2023/08/21 05:11:58;;;;;;;35.53;27.42;;;20.30;99.90;;;;;;4948390;28;48595;-65
2023/08/21 05:14:24;;;;;;;30.17;25.52;;;20.30;99.90;;;;;;4950696;28;49247;-65
2023/08/21 05:16:51;;;;;;;29.15;25.45;;;20.40;99.90;;;;;;4971239;28;74503;-65
2023/08/21 05:19:18;;;;;;;30.67;25.45;;;20.50;99.90;;;;;;4936313;28;75040;-65
2023/08/21 05:21:46;;;;;;;30.92;24.30;;;20.60;99.90;;;;;;4945383;28;74889;-65
2023/08/21 05:24:12;;;;;;;36.75;24.83;;;20.70;99.90;;;;;;4928623;28;73205;-66
2023/08/21 05:26:44;;;;;;;31.80;24.55;;;20.80;99.90;;;;;;4892817;28;70488;-65
2023/08/21 05:29:10;;;;;;;36.83;26.38;;;20.90;99.90;;;;;;4614508;28;122473;-67
2023/08/21 05:31:36;;;;;;;36.15;27.05;;;21.00;99.90;;;;;;4535244;30;24622;-65
2023/08/21 05:34:03;;;;;;;33.25;26.00;;;21.10;99.90;;;;;;4620966;29;24662;-65
2023/08/21 05:36:29;;;;;;;33.10;27.33;;;21.30;99.90;;;;;;4741001;28;24285;-65
2023/08/21 05:38:57;;;;;;;35.03;27.40;;;21.40;99.90;;;;;;4801997;28;24254;-65
2023/08/21 05:41:25;;;;;;;42.50;28.73;;;21.70;99.90;;;;;;4824279;28;24314;-65
2023/08/21 05:43:53;;;;;;;39.75;28.85;;;21.70;99.90;;;;;;4864367;28;24598;-65
2023/08/21 05:46:22;;;;;;;43.13;29.00;;;21.80;99.90;;;;;;4829345;28;24395;-65
2023/08/21 05:48:48;;;;;;;37.22;27.45;;;21.90;99.90;;;;;;4809303;29;24547;-64
2023/08/21 05:51:14;;;;;;;36.42;26.25;;;22.00;99.90;;;;;;4769339;29;24741;-65
2023/08/21 05:53:40;;;;;;;39.28;25.52;;;22.20;99.90;;;;;;4776351;29;24575;-65
2023/08/21 05:56:07;;;;;;;37.47;25.63;;;22.30;99.90;;;;;;4782188;29;24950;-65
2023/08/21 05:58:34;;;;;;;46.30;27.20;;;22.40;99.90;;;;;;4834986;29;24507;-63
2023/08/21 06:01:00;;;;;;;42.80;28.23;;;22.50;99.90;;;;;;4840118;28;24757;-65
2023/08/21 06:03:27;;;;;;;38.97;27.35;;;22.50;99.90;;;;;;4825065;28;40931;-65
2023/08/21 06:06:08;;;;;;;40.25;27.33;;;22.70;99.90;;;;;;4819359;28;24460;-65
2023/08/21 06:08:34;;;;;;;43.45;26.95;;;22.90;99.90;;;;;;4881216;28;24650;-66
2023/08/21 06:11:00;;;;;;;36.70;26.23;;;23.00;99.90;;;;;;4916461;28;24804;-66
2023/08/21 06:13:26;;;;;;;41.67;26.83;;;23.10;99.90;;;;;;4899016;28;24799;-65
2023/08/21 06:15:57;;;;;;;40.88;26.95;;;23.30;99.90;;;;;;4926199;28;41654;-66
2023/08/21 06:18:24;;;;;;;40.15;28.63;;;23.40;99.90;;;;;;4866997;28;24792;-65
2023/08/21 06:20:53;;;;;;;38.55;27.88;;;23.50;99.90;;;;;;4867954;28;24689;-65
2023/08/21 06:23:21;;;;;;;46.38;30.30;;;23.70;99.90;;;;;;4885514;28;24895;-66
2023/08/21 06:25:50;;;;;;;42.45;29.88;;;24.00;99.90;;;;;;4795512;28;24844;-65
2023/08/21 06:28:17;;;;;;;43.08;30.73;;;24.20;99.90;;;;;;4777014;28;43196;-65
2023/08/21 06:30:44;;;;;;;43.22;30.77;;;24.30;99.90;;;;;;4825253;28;24947;-65
2023/08/21 06:33:11;;;;;;;43.92;29.38;;;24.40;99.90;;;;;;4859828;28;24869;-65
2023/08/21 06:35:38;;;;;;;38.17;27.13;;;24.50;99.90;;;;;;4915874;28;24701;-65
2023/08/21 06:38:05;;;;;;;41.80;28.80;;;24.70;99.90;;;;;;4918295;28;44575;-65
2023/08/21 06:40:32;;;;;;;36.17;27.63;;;24.70;99.90;;;;;;4886966;28;24871;-65
2023/08/21 06:42:58;;;;;;;36.15;28.08;;;24.80;99.90;;;;;;4894291;28;24868;-66
2023/08/21 06:45:30;;;;;;;41.70;29.10;;;25.00;99.90;;;;;;4933025;28;45669;-65
2023/08/21 06:47:58;;;;;;;37.53;27.17;;;25.00;99.90;;;;;;4877706;28;45573;-66
2023/08/21 06:50:24;;;;;;;36.45;27.90;;;25.20;99.90;;;;;;4916830;28;33829;-65
2023/08/21 06:52:50;;;;;;;35.45;26.10;;;25.40;99.90;;;;;;4969898;28;34754;-65
2023/08/21 06:55:16;;;;;;;35.75;26.52;;;25.60;99.90;;;;;;4977156;28;36374;-66
2023/08/21 06:57:42;;;;;;;40.67;26.52;;;25.90;99.90;;;;;;4964021;28;38057;-65
2023/08/21 07:00:09;;;;;;;33.15;23.98;;;26.00;99.90;;;;;;4967316;28;39235;-65
2023/08/21 07:02:35;;;;;;;32.05;23.85;;;26.30;99.90;;;;;;4842023;28;42461;-66
2023/08/21 07:05:02;;;;;;;32.95;23.63;;;26.50;99.90;;;;;;4867580;28;42142;-66
2023/08/21 07:07:29;;;;;;;36.67;23.70;;;26.60;99.90;;;;;;4885553;28;43401;-65
2023/08/21 07:10:16;;;;;;;34.28;23.23;;;26.30;99.90;;;;;;4887218;28;42550;-65
2023/08/21 07:12:42;;;;;;;33.65;24.42;;;26.60;99.90;;;;;;4894661;28;49400;-65
2023/08/21 07:15:09;;;;;;;36.08;24.08;;;26.90;99.90;;;;;;4919432;28;49308;-68
2023/08/21 07:17:37;;;;;;;35.38;27.45;;;27.00;99.90;;;;;;4880311;28;46881;-65
2023/08/21 07:20:04;;;;;;;38.13;27.73;;;27.00;99.90;;;;;;4950394;28;46544;-65
2023/08/21 07:25:33;;;;;;;39.28;29.70;;;28.10;99.90;;;;;;5144452;27;20150;-66
2023/08/21 07:27:59;;;;;;;43.08;29.15;;;28.50;99.90;;;;;;5098640;27;20044;-65
2023/08/21 07:30:25;;;;;;;37.58;27.60;;;28.40;97.70;;;;;;5034681;28;1459200;-65
2023/08/21 07:32:53;;;;;;;40.15;28.33;;;28.30;98.70;;;;;;5071056;28;20046;-66
2023/08/21 07:35:20;;;;;;;36.15;27.63;;;28.60;98.40;;;;;;5073056;28;20055;-66
2023/08/21 07:37:46;;;;;;;35.58;27.90;;;29.10;98.60;;;;;;5070611;28;20043;-66
2023/08/21 07:40:13;;;;;;;36.40;26.60;;;29.30;96.70;;;;;;5078265;28;20052;-67
2023/08/21 07:42:39;;;;;;;35.63;26.63;;;29.50;95.80;;;;;;5074129;28;20467;-66
2023/08/21 07:45:06;;;;;;;38.38;28.45;;;29.80;96.20;;;;;;5059048;28;20052;-67
2023/08/21 07:47:33;;;;;;;40.22;26.85;;;30.00;94.10;;;;;;5045440;28;20099;-67
2023/08/21 07:49:59;;;;;;;35.50;27.63;;;30.30;93.40;;;;;;5062434;28;20045;-67
2023/08/21 07:52:25;;;;;;;40.30;27.05;;;29.90;92.80;;;;;;5075498;28;20325;-67
2023/08/21 07:54:54;;;;;;;37.83;28.00;;;30.10;93.30;;;;;;5067404;28;20041;-67
2023/08/21 07:57:20;;;;;;;40.90;28.23;;;30.40;92.50;;;;;;5049377;28;20045;-67
2023/08/21 07:59:46;;;;;;;41.15;28.02;;;30.60;90.80;;;;;;5030228;28;20495;-68
2023/08/21 08:02:13;;;;;;;34.95;27.05;;;30.80;91.70;;;;;;5006933;28;20057;-67
2023/08/21 08:04:39;;;;;;;38.42;28.65;;;31.00;90.40;;;;;;5034894;28;20132;-67
2023/08/21 08:07:05;;;;;;;41.92;26.67;;;31.10;89.90;;;;;;5033723;28;20037;-67
2023/08/21 08:09:31;;;;;;;33.60;26.42;;;31.50;91.60;;;;;;5011679;28;20129;-67
2023/08/21 08:11:57;;;;;;;40.28;29.38;;;31.80;90.80;;;;;;5019494;28;20038;-67
2023/08/21 08:14:23;;;;;;;35.88;27.30;;;31.90;85.20;;;;;;5037662;28;20032;-68
2023/08/21 08:16:50;;;;;;;39.22;27.02;;;31.80;84.30;;;;;;5023558;28;20073;-67
2023/08/21 08:19:16;;;;;;;34.03;25.63;;;31.90;87.20;;;;;;5029877;28;20849;-68
2023/08/21 08:21:42;;;;;;;44.47;29.80;;;32.10;86.80;;;;;;5017570;28;20144;-68
2023/08/21 08:24:08;;;;;;;46.90;29.75;;;32.10;81.10;;;;;;4998887;28;20061;-68
2023/08/21 08:26:34;;;;;;;43.70;28.83;;;31.60;83.80;;;;;;5026377;28;20061;-68
2023/08/21 08:29:00;;;;;;;38.15;26.58;;;31.80;80.90;;;;;;5029705;28;20051;-68
2023/08/21 08:31:27;;;;;;;42.58;31.20;;;32.30;84.70;;;;;;5032102;28;20034;-68
2023/08/21 08:33:54;;;;;;;39.05;31.45;;;31.90;80.90;;;;;;5032482;28;20522;-68
2023/08/21 08:36:20;;;;;;;44.47;31.05;;;31.70;81.10;;;;;;5006558;28;20042;-69
2023/08/21 08:38:46;;;;;;;42.15;30.65;;;31.40;84.40;;;;;;5015799;28;20085;-68
2023/08/21 08:41:37;;;;;;;48.38;29.33;;;32.00;83.70;;;;;;5023791;28;20065;-68
2023/08/21 08:44:03;;;;;;;;;;;32.50;81.00;;;;;;4983200;28;20385;-68
2023/08/21 08:46:30;;;;;;;44.25;30.40;;;32.40;79.80;;;;;;4976032;28;19913;-69
2023/08/21 08:48:56;;;;;;;39.47;30.10;;;32.70;77.50;;;;;;4970287;28;20450;-68
2023/08/21 08:51:28;;;;;;;46.05;31.40;;;32.30;79.60;;;;;;4989593;28;20053;-68
2023/08/21 08:53:55;;;;;;;39.95;31.45;;;32.30;79.90;;;;;;4975250;28;20034;-68
2023/08/21 08:56:21;;;;;;;39.50;28.50;;;32.60;78.30;;;;;;4983304;28;20042;-68
2023/08/21 08:58:47;;;;;;;41.47;28.48;;;32.80;76.70;;;;;;5005668;28;20196;-68
2023/08/21 09:01:13;;;;;;;39.88;30.00;;;33.20;78.80;;;;;;4965740;28;20913;-68
2023/08/21 09:03:39;;;;;;;41.47;29.52;;;33.50;74.40;;;;;;4985535;28;21987;-69
2023/08/21 09:06:05;;;;;;;39.42;31.15;;;33.60;73.60;;;;;;4986221;28;22208;-69
2023/08/21 09:08:31;;;;;;;43.08;27.95;;;33.80;70.60;;;;;;4982058;28;22989;-68
2023/08/21 09:11:03;;;;;;;40.83;27.73;;;33.30;70.10;;;;;;4988205;28;23436;-68
2023/08/21 09:13:31;;;;;;;38.75;27.98;;;33.60;70.30;;;;;;5008236;28;24100;-69
2023/08/21 09:15:58;;;;;;;41.58;31.48;;;33.90;71.60;;;;;;5010205;28;24794;-69
2023/08/21 09:18:24;;;;;;;38.63;28.05;;;34.50;68.40;;;;;;4979516;28;25465;-68
2023/08/21 09:20:50;;;;;;;35.38;28.63;;;33.70;68.90;;;;;;4994717;28;27104;-69
2023/08/21 09:23:18;;;;;;;35.20;26.20;;;33.30;68.60;;;;;;5007734;28;28488;-69
2023/08/21 09:25:48;;;;;;;32.88;24.35;;;34.20;72.50;;;;;;4974753;28;24811;-69
2023/08/21 09:28:18;;;;;;;33.08;24.98;;;35.00;69.00;;;;;;5012867;28;29559;-69
2023/08/21 09:30:48;;;;;;;31.83;24.55;;;35.10;62.90;;;;;;4987945;28;31336;-69
2023/08/21 09:33:17;;;;;;;31.75;23.88;;;35.20;63.00;;;;;;5011925;28;25018;-69
2023/08/21 09:35:44;;;;;;;27.25;21.88;;;35.50;64.00;;;;;;5006864;28;32878;-69
2023/08/21 09:38:14;;;;;;;31.25;24.50;;;35.10;62.90;;;;;;5001617;28;25040;-69
2023/08/21 09:40:51;;;;;;;30.55;23.58;;;35.30;59.80;;;;;;4973330;28;34708;-68
2023/08/21 09:43:17;;;;;;;28.50;21.95;;;34.80;59.50;;;;;;4991666;28;34951;-69
2023/08/21 09:45:47;;;;;;;23.20;19.13;;;35.20;60.70;;;;;;4976440;28;35606;-69
2023/08/21 09:48:14;;;;;;;28.25;21.55;;;35.50;64.70;;;;;;4952556;28;24896;-69
2023/08/21 09:50:40;;;;;;;30.83;20.20;;;35.70;58.00;;;;;;4953836;28;37918;-69
2023/08/21 09:53:08;;;;;;;33.38;21.80;;;35.90;60.70;;;;;;4982783;28;39657;-69
2023/08/21 09:55:35;;;;;;;31.77;20.73;;;36.10;56.90;;;;;;4934094;28;40701;-69
2023/08/21 09:58:02;;;;;;;26.95;22.40;;;35.20;58.20;;;;;;4958489;28;25036;-69
2023/08/21 10:00:39;;;;;;;27.95;21.90;;;35.90;57.50;;;;;;4966330;28;42822;-69
2023/08/21 10:03:08;;;;;;;32.78;22.73;;;35.10;58.20;;;;;;5001458;28;44073;-69
2023/08/21 10:05:36;;;;;;;27.35;22.38;;;35.30;57.90;;;;;;4980788;28;44748;-69
2023/08/21 10:08:04;;;;;;;29.55;23.60;;;35.70;58.10;;;;;;4967674;28;45958;-69
2023/08/21 10:10:38;;;;;;;28.00;21.40;;;36.00;57.80;;;;;;4964577;28;46548;-69
2023/08/21 10:13:06;;;;;;;28.77;21.55;;;36.60;56.80;;;;;;4935438;28;47315;-69
2023/08/21 10:15:34;;;;;;;41.92;20.75;;;36.40;56.10;;;;;;4964944;28;49158;-69
2023/08/21 10:18:23;;;;;;;22.35;17.83;;;36.50;54.90;;;;;;4977028;28;27118;-69
2023/08/21 10:20:54;;;;;;;19.45;16.67;;;36.70;55.60;;;;;;4934981;28;48958;-69
2023/08/21 10:23:31;;;;;;;20.80;17.25;;;37.10;52.30;;;;;;4950617;28;49448;-69
2023/08/21 10:25:59;;;;;;;24.10;17.20;;;36.70;53.40;;;;;;4979176;28;48769;-69
2023/08/21 10:28:25;;;;;;;24.27;17.65;;;37.20;54.10;;;;;;4988790;28;55214;-69
2023/08/21 10:30:51;;;;;;;21.38;16.45;;;37.20;53.90;;;;;;4988872;28;31731;-69
2023/08/21 10:33:37;;;;;;;21.15;14.23;;;37.40;51.60;;;;;;4965607;28;31833;-69
2023/08/21 10:36:03;;;;;;;24.25;15.05;;;37.40;50.30;;;;;;4965942;28;35169;-69
2023/08/21 10:38:29;;;;;;;19.83;14.70;;;37.60;53.80;;;;;;4986728;28;36435;-70
2023/08/21 10:41:06;;;;;;;19.33;14.45;;;38.10;52.80;;;;;;4985503;28;38313;-70
2023/08/21 10:43:44;;;;;;;20.35;15.27;;;38.10;49.50;;;;;;4881944;28;25474;-70
2023/08/21 10:46:11;;;;;;;29.00;17.90;;;38.50;49.80;;;;;;4956954;28;24157;-70
2023/08/21 10:48:38;;;;;;;18.17;13.65;;;38.20;49.20;;;;;;4972437;28;24734;-69
2023/08/21 10:51:07;;;;;;;15.23;10.98;;;37.30;47.20;;;;;;4910608;28;24878;-70
2023/08/21 10:53:33;;;;;;;14.98;10.55;;;37.70;44.90;;;;;;4924102;28;24792;-70
2023/08/21 10:56:04;;;;;;;19.80;10.05;;;37.20;44.10;;;;;;4922456;28;25044;-69
2023/08/21 10:58:43;;;;;;;12.90;10.23;;;37.70;44.40;;;;;;4908783;28;24821;-69
2023/08/21 11:01:12;;;;;;;16.07;11.00;;;38.20;42.10;;;;;;4927610;28;42579;-69
2023/08/21 11:03:39;;;;;;;16.35;10.90;;;38.30;40.70;;;;;;4899085;28;43549;-69
2023/08/21 11:06:08;;;;;;;21.10;11.65;;;38.60;43.50;;;;;;4871905;28;24756;-71
2023/08/21 11:08:35;;;;;;;28.95;19.05;;;38.80;40.40;;;;;;4856571;28;45621;-70
2023/08/21 11:11:03;;;;;;;23.10;13.60;;;38.60;41.40;;;;;;4862480;28;24974;-68
2023/08/21 11:13:29;;;;;;;17.90;12.77;;;38.70;44.30;;;;;;4833944;29;47298;-70
2023/08/21 11:16:00;;;;;;;18.33;10.95;;;38.60;43.40;;;;;;4846374;28;49002;-69
2023/08/21 11:18:31;;;;;;;24.85;12.52;;;39.00;41.90;;;;;;4810866;28;51629;-70
2023/08/21 11:21:05;;;;;;;16.63;11.65;;;39.10;41.00;;;;;;4821493;29;52236;-71
2023/08/21 11:23:36;;;;;;;17.52;12.23;;;39.30;41.20;;;;;;4815389;29;54309;-70
2023/08/21 11:26:03;;;;;;;16.58;11.27;;;39.50;41.10;;;;;;4822214;28;25006;-69
2023/08/21 11:28:30;;;;;;;13.85;11.70;;;39.00;39.70;;;;;;4825263;28;49189;-70
2023/08/21 11:30:57;;;;;;;17.42;11.98;;;38.70;41.00;;;;;;4740357;29;57504;-70
2023/08/21 11:33:23;;;;;;;14.60;11.02;;;38.30;42.10;;;;;;4759520;29;34526;-70
2023/08/21 11:35:49;;;;;;;17.42;10.68;;;38.00;44.40;;;;;;4747902;29;33383;-69
2023/08/21 11:38:21;;;;;;;15.55;11.25;;;38.00;40.60;;;;;;4808350;29;34771;-69
2023/08/21 11:40:56;;;;;;;16.27;11.73;;;38.20;41.50;;;;;;4815666;28;24689;-70
2023/08/21 11:43:22;;;;;;;13.65;9.60;;;37.80;42.00;;;;;;4818599;28;60318;-70
2023/08/21 11:45:49;;;;;;;13.23;9.73;;;38.20;41.00;;;;;;4844222;28;36766;-70
2023/08/21 11:48:15;;;;;;;12.68;9.50;;;38.40;40.90;;;;;;4855444;28;49413;-70
2023/08/21 11:53:07;;;;;;;19.40;10.65;;;38.90;40.10;;;;;;4944944;28;24908;-71
2023/08/21 11:55:34;;;;;;;11.07;9.45;;;38.90;40.90;;;;;;4947755;28;49210;-70
2023/08/21 11:58:02;;;;;;;13.68;10.15;;;38.50;38.00;;;;;;4908819;28;63956;-70
2023/08/21 12:00:30;;;;;;;12.07;10.05;;;38.20;41.40;;;;;;4940484;28;49101;-70
2023/08/21 12:02:59;;;;;;;13.48;8.93;;;37.70;42.10;;;;;;4948228;28;49673;-71
2023/08/21 12:05:26;;;;;;;9.60;8.63;;;37.30;42.10;;;;;;4936538;28;42228;-71
2023/08/21 12:07:55;;;;;;;15.77;9.68;;;36.50;43.90;;;;;;4920292;28;24792;-70
2023/08/21 12:10:33;;;;;;;13.57;9.27;;;36.20;43.70;;;;;;4961067;28;24878;-70
2023/08/21 12:12:58;;;;;;;10.52;8.98;;;35.70;45.50;;;;;;4947253;28;44625;-70
2023/08/21 12:15:27;;;;;;;14.15;9.98;;;35.40;48.40;;;;;;4931799;28;45228;-70
2023/08/21 12:17:53;;;;;;;12.73;8.82;;;35.30;46.00;;;;;;4913629;28;49192;-69
2023/08/21 12:20:20;;;;;;;12.18;8.63;;;35.00;47.40;;;;;;4951542;28;46364;-70
2023/08/21 12:22:46;;;;;;;11.35;8.15;;;34.90;48.90;;;;;;4942441;28;46234;-69
2023/08/21 12:25:13;;;;;;;15.65;9.07;;;35.10;47.40;;;;;;4930009;28;49386;-70
2023/08/21 12:27:39;;;;;;;10.90;8.65;;;35.30;45.50;;;;;;4933778;28;48306;-70
2023/08/21 12:30:06;;;;;;;13.70;9.73;;;;;;;;;;4942997;28;48194;-70
2023/08/21 12:32:32;;;;;;;15.55;9.13;;;;;;;;;;4914901;28;49207;-70
2023/08/21 12:34:58;;;;;;;12.43;9.00;;;36.50;44.00;;;;;;4934279;28;49336;-70
2023/08/21 12:37:25;;;;;;;10.45;8.73;;;37.00;43.80;;;;;;4898124;28;49618;-70
2023/08/21 12:39:51;;;;;;;11.45;8.30;;;37.20;43.10;;;;;;4916207;28;49344;-70